Time;durP1;ratioP1;P1;durP2;ratioP2;P2;SDS_P1;SDS_P2;PMS_P1;PMS_P2;Temp;Humidity;BMP_temperature;BMP_pressure;BME280_temperature;BME280_humidity;BME280_pressure;Samples;Min_cycle;Max_cycle;Signal;HPM_P1;HPM_P2
2022/06/22 00:01:15;;;;;;;8.53;4.03;;;19.70;99.90;;;;;;5064658;28;20420;-73
2022/06/22 00:03:42;;;;;;;7.03;4.27;;;19.60;99.90;;;;;;5067260;28;20423;-76
2022/06/22 00:06:24;;;;;;;8.13;4.50;;;19.50;99.90;;;;;;5066991;28;20467;-77
2022/06/22 00:08:51;;;;;;;9.73;5.30;;;19.50;99.90;;;;;;5067843;28;20423;-74
2022/06/22 00:11:18;;;;;;;5.90;4.40;;;19.50;99.90;;;;;;5053716;28;20418;-77
2022/06/22 00:14:03;;;;;;;8.40;4.23;;;19.40;99.90;;;;;;5055627;28;20459;-73
2022/06/22 00:16:33;;;;;;;6.50;4.03;;;19.40;99.90;;;;;;5054213;28;20803;-77
2022/06/22 00:18:59;;;;;;;7.43;4.90;;;19.30;99.90;;;;;;5062361;28;20520;-76
2022/06/22 00:21:28;;;;;;;19.13;5.93;;;19.30;99.90;;;;;;5057331;28;20435;-76
2022/06/22 00:23:57;;;;;;;11.13;4.90;;;19.30;99.90;;;;;;5057326;28;20954;-78
2022/06/22 00:26:23;;;;;;;16.80;5.97;;;19.20;99.90;;;;;;5064228;28;20569;-77
2022/06/22 00:29:03;;;;;;;8.57;4.93;;;19.10;99.90;;;;;;5049590;28;20420;-76
2022/06/22 00:31:47;;;;;;;12.00;5.40;;;19.10;99.90;;;;;;5054039;28;20245;-74
2022/06/22 00:34:22;;;;;;;11.53;5.20;;;19.10;99.90;;;;;;5048806;28;20428;-80
2022/06/22 00:36:59;;;;;;;7.70;4.73;;;19.10;99.90;;;;;;5051455;28;20467;-74
2022/06/22 00:39:31;;;;;;;8.17;5.33;;;19.00;99.90;;;;;;5055934;28;20427;-79
2022/06/22 00:42:14;;;;;;;11.93;6.23;;;19.00;99.90;;;;;;5047354;28;20833;-79
2022/06/22 00:45:22;;;;;;;10.47;5.50;;;19.00;99.90;;;;;;5046550;28;20479;-74
2022/06/22 00:47:59;;;;;;;14.60;5.33;;;19.10;99.90;;;;;;5047385;28;20942;-78
2022/06/22 00:50:28;;;;;;;5.93;4.17;;;19.10;99.90;;;;;;5055580;28;20411;-74
2022/06/22 00:53:04;;;;;;;13.50;5.20;;;19.20;99.90;;;;;;5066627;28;20418;-76
2022/06/22 00:55:31;;;;;;;8.57;4.73;;;19.20;99.90;;;;;;5064750;28;20815;-77
2022/06/22 00:58:09;;;;;;;8.83;4.00;;;19.20;99.90;;;;;;5056757;28;20515;-78
2022/06/22 01:00:39;;;;;;;11.63;5.10;;;19.20;99.90;;;;;;5063431;28;20772;-77
2022/06/22 01:03:38;;;;;;;8.77;4.97;;;19.10;99.90;;;;;;5063097;28;20415;-76
2022/06/22 01:06:13;;;;;;;8.33;4.43;;;19.10;99.90;;;;;;5066979;28;20464;-79
2022/06/22 01:08:46;;;;;;;10.50;6.03;;;19.10;99.90;;;;;;5066722;28;20506;-77
2022/06/22 01:14:11;;;;;;;7.93;4.40;;;19.20;99.90;;;;;;5052624;28;20436;-79
2022/06/22 01:16:40;;;;;;;11.37;5.13;;;19.30;99.90;;;;;;5066651;28;20423;-76
2022/06/22 01:19:25;;;;;;;14.87;5.80;;;19.30;99.90;;;;;;5051985;28;20438;-78
2022/06/22 01:22:11;;;;;;;10.87;5.73;;;19.30;99.90;;;;;;5065696;28;20443;-77
2022/06/22 01:24:52;;;;;;;7.90;4.70;;;19.20;99.90;;;;;;5052513;28;20439;-77
2022/06/22 01:27:39;;;;;;;9.30;4.70;;;19.10;99.90;;;;;;5066582;28;20455;-77
2022/06/22 01:30:18;;;;;;;6.43;4.53;;;19.10;99.90;;;;;;5057397;28;20419;-76
2022/06/22 01:32:45;;;;;;;8.13;4.77;;;19.20;99.90;;;;;;5066779;28;20408;-76
2022/06/22 01:35:24;;;;;;;9.17;4.87;;;19.20;99.90;;;;;;5058724;28;20502;-76
2022/06/22 01:37:49;;;;;;;10.43;6.73;;;19.30;99.90;;;;;;5059867;28;20451;-77
2022/06/22 01:40:20;;;;;;;8.67;4.80;;;19.40;99.90;;;;;;5060413;28;20443;-77
2022/06/22 01:43:01;;;;;;;9.20;4.43;;;19.40;99.90;;;;;;5059634;28;20269;-78
2022/06/22 01:45:29;;;;;;;16.83;5.13;;;19.40;99.90;;;;;;5054527;28;20442;-77
2022/06/22 01:48:13;;;;;;;10.33;5.60;;;19.50;99.90;;;;;;5065157;28;21308;-77
2022/06/22 01:50:47;;;;;;;9.00;5.60;;;19.50;99.90;;;;;;5054212;28;20415;-77
2022/06/22 01:53:39;;;;;;;16.10;6.23;;;19.40;99.90;;;;;;5065381;28;20552;-74
2022/06/22 01:56:14;;;;;;;14.80;6.33;;;19.40;99.90;;;;;;5057609;28;20798;-76
2022/06/22 01:59:10;;;;;;;9.33;5.37;;;19.30;99.90;;;;;;5068241;28;20410;-76
2022/06/22 02:01:57;;;;;;;15.60;7.03;;;19.20;99.90;;;;;;5067994;28;20876;-77
2022/06/22 02:04:38;;;;;;;11.37;6.90;;;19.10;99.90;;;;;;5064489;28;20984;-76
2022/06/22 02:10:15;;;;;;;12.70;7.33;;;18.80;99.90;;;;;;5057044;28;20416;-73
2022/06/22 02:13:02;;;;;;;10.60;7.00;;;18.80;99.90;;;;;;5055307;28;20439;-76
2022/06/22 02:15:43;;;;;;;17.97;7.77;;;18.90;99.90;;;;;;5069659;28;20435;-76
2022/06/22 02:18:10;;;;;;;13.07;8.10;;;18.90;99.90;;;;;;5060315;28;20976;-75
2022/06/22 02:20:38;;;;;;;18.90;8.27;;;18.90;99.90;;;;;;5064221;28;20423;-76
2022/06/22 02:23:35;;;;;;;17.77;7.47;;;18.90;99.90;;;;;;5057524;28;20423;-76
2022/06/22 02:26:21;;;;;;;14.83;8.17;;;18.80;99.90;;;;;;5054737;28;20574;-77
2022/06/22 02:28:47;;;;;;;17.87;8.83;;;18.80;99.90;;;;;;5068507;28;20411;-77
2022/06/22 02:31:13;;;;;;;9.43;6.97;;;18.80;99.90;;;;;;5068994;28;20430;-78
2022/06/22 02:33:46;;;;;;;11.53;7.47;;;18.80;99.90;;;;;;5068257;28;20485;-78
2022/06/22 02:36:12;;;;;;;17.77;8.10;;;18.70;99.90;;;;;;5056691;28;20419;-76
2022/06/22 02:38:40;;;;;;;12.60;7.60;;;18.70;99.90;;;;;;5068807;28;20427;-78
2022/06/22 02:46:39;;;;;;;15.03;7.53;;;18.60;99.90;;;;;;5051416;28;20490;-75
2022/06/22 02:49:31;;;;;;;17.03;8.07;;;18.60;99.90;;;;;;5068618;28;20950;-77
2022/06/22 02:51:59;;;;;;;11.47;7.43;;;18.50;99.90;;;;;;5066413;28;20439;-77
2022/06/22 02:54:30;;;;;;;14.60;7.70;;;18.50;99.90;;;;;;5068594;28;20431;-77
2022/06/22 02:57:37;;;;;;;12.10;8.40;;;18.50;99.90;;;;;;5054519;28;20420;-76
2022/06/22 03:00:04;;;;;;;13.20;8.53;;;18.50;99.90;;;;;;5042380;28;20478;-76
2022/06/22 03:02:29;;;;;;;14.60;8.13;;;18.50;99.90;;;;;;5060297;28;20506;-76
2022/06/22 03:04:58;;;;;;;14.23;7.50;;;18.50;99.90;;;;;;5062534;28;20882;-75
2022/06/22 03:07:25;;;;;;;15.70;7.87;;;18.50;99.90;;;;;;5061818;28;20260;-78
2022/06/22 03:09:52;;;;;;;12.63;8.17;;;18.40;99.90;;;;;;5060932;28;20450;-77
2022/06/22 03:12:18;;;;;;;18.20;7.90;;;18.40;99.90;;;;;;5068250;28;20411;-76
2022/06/22 03:14:52;;;;;;;18.07;7.80;;;18.30;99.90;;;;;;5067899;28;20826;-74
2022/06/22 03:17:22;;;;;;;14.63;7.63;;;18.20;99.90;;;;;;5066950;28;20458;-76
2022/06/22 03:20:17;;;;;;;13.17;6.87;;;18.20;99.90;;;;;;5068363;28;20457;-77
2022/06/22 03:22:47;;;;;;;11.60;6.80;;;18.20;99.90;;;;;;5039467;28;20571;-76
2022/06/22 03:25:26;;;;;;;9.07;6.03;;;18.20;99.90;;;;;;5055887;28;20444;-74
2022/06/22 03:27:58;;;;;;;12.50;7.97;;;18.20;99.90;;;;;;5050439;28;20829;-74
2022/06/22 03:30:32;;;;;;;11.17;6.87;;;18.20;99.90;;;;;;5061942;28;20769;-73
2022/06/22 03:33:08;;;;;;;15.40;7.37;;;18.20;99.90;;;;;;5066933;28;20470;-74
2022/06/22 03:35:41;;;;;;;18.33;7.90;;;18.20;99.90;;;;;;5060502;28;20535;-76
2022/06/22 03:38:09;;;;;;;12.70;6.60;;;18.20;99.90;;;;;;5069512;28;20425;-76
2022/06/22 03:40:47;;;;;;;13.13;7.27;;;18.20;99.90;;;;;;5069408;28;20433;-76
2022/06/22 03:43:27;;;;;;;13.00;7.07;;;18.20;99.90;;;;;;5054885;28;20905;-76
2022/06/22 03:45:59;;;;;;;13.77;7.17;;;18.20;99.90;;;;;;5069219;28;20466;-76
2022/06/22 03:48:29;;;;;;;17.17;7.63;;;18.20;99.90;;;;;;5069427;28;20432;-75
2022/06/22 03:51:12;;;;;;;19.90;8.60;;;18.30;99.90;;;;;;5067019;28;20462;-75
2022/06/22 03:53:44;;;;;;;19.60;7.60;;;18.30;99.90;;;;;;5067631;28;20419;-76
2022/06/22 03:56:14;;;;;;;14.27;7.03;;;18.40;99.90;;;;;;5070824;28;20502;-71
2022/06/22 03:58:43;;;;;;;8.30;6.07;;;18.40;99.90;;;;;;5070242;28;20427;-75
2022/06/22 04:01:10;;;;;;;12.73;7.00;;;18.50;99.90;;;;;;5069914;28;20481;-76
2022/06/22 04:03:36;;;;;;;12.87;7.60;;;18.50;99.90;;;;;;5068928;28;20478;-72
2022/06/22 04:06:04;;;;;;;10.87;6.63;;;18.50;99.90;;;;;;5068225;28;20459;-76
2022/06/22 04:08:33;;;;;;;12.10;8.00;;;18.50;99.90;;;;;;5069447;28;20422;-75
2022/06/22 04:11:04;;;;;;;10.20;6.27;;;18.60;99.90;;;;;;5068419;28;20465;-78
2022/06/22 04:13:39;;;;;;;8.57;5.90;;;18.60;99.90;;;;;;5067973;28;20419;-77
2022/06/22 04:16:20;;;;;;;10.50;6.50;;;18.60;99.90;;;;;;5057931;28;20534;-77
2022/06/22 04:18:58;;;;;;;10.37;6.83;;;18.60;99.90;;;;;;5061609;28;20938;-73
2022/06/22 04:21:35;;;;;;;14.20;6.70;;;18.60;99.90;;;;;;5062640;28;20431;-74
2022/06/22 04:24:11;;;;;;;13.90;7.63;;;18.70;99.90;;;;;;5066587;28;20435;-76
2022/06/22 04:26:56;;;;;;;13.57;6.83;;;18.60;99.90;;;;;;5067526;28;20977;-74
2022/06/22 04:29:32;;;;;;;9.60;5.93;;;18.60;99.90;;;;;;5068377;28;20422;-77
2022/06/22 04:32:13;;;;;;;10.20;6.87;;;18.60;99.90;;;;;;5067516;28;20894;-76
2022/06/22 04:35:05;;;;;;;10.80;6.93;;;18.70;99.90;;;;;;5050147;28;20452;-73
2022/06/22 04:37:55;;;;;;;10.73;6.60;;;18.70;99.90;;;;;;5048271;28;20439;-76
2022/06/22 04:40:35;;;;;;;13.27;6.33;;;18.70;99.90;;;;;;5044913;28;20435;-74
2022/06/22 04:43:04;;;;;;;13.33;7.80;;;18.70;99.90;;;;;;5066498;28;20450;-77
2022/06/22 04:45:37;;;;;;;10.33;6.50;;;18.70;99.90;;;;;;5065827;28;20513;-77
2022/06/22 04:48:10;;;;;;;13.97;7.07;;;18.70;99.90;;;;;;5068761;28;20502;-77
2022/06/22 04:50:39;;;;;;;11.73;7.27;;;18.70;99.90;;;;;;5060144;28;20507;-74
2022/06/22 04:53:06;;;;;;;15.90;7.47;;;18.80;99.90;;;;;;5061184;28;21260;-76
2022/06/22 04:55:38;;;;;;;13.07;7.60;;;18.80;99.90;;;;;;5067313;28;20538;-76
2022/06/22 04:58:13;;;;;;;10.13;6.27;;;18.80;99.90;;;;;;5066872;28;20415;-72
2022/06/22 05:00:39;;;;;;;11.00;7.13;;;18.80;99.90;;;;;;5075243;28;20418;-79
2022/06/22 05:03:09;;;;;;;9.93;6.40;;;18.90;99.90;;;;;;5061097;28;20475;-76
2022/06/22 05:05:35;;;;;;;11.43;7.83;;;19.00;99.90;;;;;;5056556;28;20572;-78
2022/06/22 05:08:07;;;;;;;16.53;8.53;;;19.00;99.90;;;;;;5061863;28;20872;-76
2022/06/22 05:10:35;;;;;;;12.87;6.60;;;19.10;99.90;;;;;;5065355;28;20446;-78
2022/06/22 05:13:04;;;;;;;10.53;6.33;;;19.20;99.90;;;;;;5062315;28;20507;-78
2022/06/22 05:15:37;;;;;;;13.70;6.53;;;19.20;99.90;;;;;;5065496;28;20470;-78
2022/06/22 05:18:10;;;;;;;11.80;6.70;;;19.40;99.90;;;;;;5065647;28;20410;-77
2022/06/22 05:20:41;;;;;;;14.30;6.23;;;19.50;99.90;;;;;;5063546;28;21455;-76
2022/06/22 05:23:07;;;;;;;17.77;7.70;;;19.60;99.90;;;;;;5066109;28;20422;-77
2022/06/22 05:25:34;;;;;;;12.80;6.40;;;19.70;99.90;;;;;;5064832;28;21036;-76
2022/06/22 05:28:08;;;;;;;11.50;7.13;;;19.80;99.90;;;;;;5064640;28;20549;-78
2022/06/22 05:31:02;;;;;;;11.47;7.33;;;19.90;99.90;;;;;;5064607;28;20518;-76
2022/06/22 05:33:29;;;;;;;10.03;6.53;;;19.90;99.90;;;;;;5051674;28;20423;-77
2022/06/22 05:36:02;;;;;;;9.10;5.50;;;19.90;99.90;;;;;;5068641;28;20445;-74
2022/06/22 05:38:29;;;;;;;10.27;5.83;;;19.90;99.90;;;;;;5078325;28;20432;-77
2022/06/22 05:40:55;;;;;;;10.37;6.20;;;19.90;99.90;;;;;;5061370;28;20431;-74
2022/06/22 05:43:22;;;;;;;10.00;5.80;;;19.80;99.90;;;;;;5069321;28;20510;-79
2022/06/22 05:45:54;;;;;;;11.30;6.03;;;19.80;99.90;;;;;;5069736;28;21112;-76
2022/06/22 05:48:24;;;;;;;9.30;5.83;;;19.80;99.90;;;;;;5068372;28;20423;-78
2022/06/22 05:50:58;;;;;;;9.17;5.43;;;19.80;99.90;;;;;;5070033;28;20415;-75
2022/06/22 05:53:37;;;;;;;7.93;4.87;;;19.70;99.90;;;;;;5060545;28;20434;-76
2022/06/22 05:56:25;;;;;;;9.10;6.40;;;19.70;99.90;;;;;;5067768;28;20438;-77
2022/06/22 05:58:53;;;;;;;12.00;6.90;;;19.70;99.90;;;;;;5072690;28;20423;-75
2022/06/22 06:01:25;;;;;;;15.43;8.27;;;19.60;99.90;;;;;;5075180;28;20430;-78
2022/06/22 06:04:04;;;;;;;17.37;8.07;;;19.50;99.90;;;;;;5071338;28;20451;-77
2022/06/22 06:06:38;;;;;;;13.13;8.33;;;19.40;99.90;;;;;;5062382;28;20494;-77
2022/06/22 06:09:09;;;;;;;17.03;8.70;;;19.20;99.90;;;;;;5069226;28;20506;-78
2022/06/22 06:11:55;;;;;;;13.50;7.77;;;19.00;99.90;;;;;;5062223;28;20495;-77
2022/06/22 06:14:27;;;;;;;13.80;8.97;;;19.00;99.90;;;;;;5067376;28;20435;-77
2022/06/22 06:16:57;;;;;;;14.90;9.10;;;18.90;99.90;;;;;;5050324;28;20539;-77
2022/06/22 06:19:28;;;;;;;23.70;9.20;;;18.80;99.90;;;;;;5059442;28;20443;-76
2022/06/22 06:21:58;;;;;;;15.27;8.13;;;18.80;99.90;;;;;;5065281;28;20443;-76
2022/06/22 06:27:34;;;;;;;16.60;8.00;;;18.70;99.90;;;;;;5065515;28;20439;-75
2022/06/22 06:27:38;;;;;;;16.63;8.73;;;18.80;99.90;;;;;;5067255;28;20885;-76
2022/06/22 06:30:13;;;;;;;13.47;8.17;;;18.70;99.90;;;;;;5066359;28;20423;-76
2022/06/22 06:32:59;;;;;;;15.63;8.60;;;18.60;99.90;;;;;;5067207;28;20483;-77
2022/06/22 06:35:35;;;;;;;38.63;9.00;;;18.50;99.90;;;;;;5068280;28;20427;-77
2022/06/22 06:38:38;;;;;;;15.47;8.70;;;18.50;99.90;;;;;;5063121;28;20476;-78
2022/06/22 06:41:07;;;;;;;17.60;8.80;;;18.50;99.90;;;;;;5060805;28;20977;-76
2022/06/22 06:43:42;;;;;;;10.03;7.63;;;18.50;99.90;;;;;;5066359;28;20486;-79
2022/06/22 06:46:23;;;;;;;18.77;8.40;;;18.50;99.90;;;;;;5066746;28;20494;-78
2022/06/22 06:49:04;;;;;;;15.60;8.10;;;18.50;99.90;;;;;;5064004;28;21182;-77
2022/06/22 06:51:32;;;;;;;25.07;7.90;;;18.50;99.90;;;;;;5067890;28;20416;-76
2022/06/22 06:54:06;;;;;;;14.83;8.67;;;18.50;99.90;;;;;;5067652;28;20465;-77
2022/06/22 06:56:57;;;;;;;13.73;7.57;;;18.50;99.90;;;;;;5067382;28;20418;-78
2022/06/22 06:59:28;;;;;;;11.70;7.97;;;18.50;99.90;;;;;;5064226;28;21021;-78
2022/06/22 07:01:54;;;;;;;9.80;6.50;;;18.60;99.90;;;;;;5067311;28;20453;-76
2022/06/22 07:04:32;;;;;;;13.13;8.33;;;18.60;99.90;;;;;;5069167;28;20427;-78
2022/06/22 07:07:22;;;;;;;14.13;8.40;;;18.70;99.90;;;;;;5066432;28;20688;-76
2022/06/22 07:09:50;;;;;;;15.40;8.40;;;18.80;99.90;;;;;;5065724;28;21020;-76
2022/06/22 07:12:33;;;;;;;12.47;7.30;;;18.90;99.90;;;;;;5067754;28;20420;-78
2022/06/22 07:15:02;;;;;;;10.77;7.47;;;19.00;99.90;;;;;;5067635;28;20945;-77
2022/06/22 07:17:31;;;;;;;8.77;6.90;;;19.10;99.90;;;;;;5064960;28;20415;-76
2022/06/22 07:20:16;;;;;;;13.13;6.87;;;19.20;99.90;;;;;;5067049;28;20481;-72
2022/06/22 07:23:06;;;;;;;10.33;7.53;;;19.40;99.90;;;;;;5062385;28;20950;-78
2022/06/22 07:25:49;;;;;;;10.10;6.70;;;19.60;99.90;;;;;;5063568;28;20496;-77
2022/06/22 07:28:19;;;;;;;13.57;6.30;;;19.70;99.90;;;;;;5055815;28;20403;-76
2022/06/22 07:30:49;;;;;;;9.43;6.10;;;19.80;99.90;;;;;;5066483;28;20404;-76
2022/06/22 07:33:29;;;;;;;9.23;6.27;;;19.90;99.90;;;;;;5061545;28;20424;-76
2022/06/22 07:36:01;;;;;;;11.13;5.90;;;20.00;99.90;;;;;;5066870;28;20758;-75
2022/06/22 07:38:43;;;;;;;9.83;6.07;;;20.10;99.90;;;;;;5066431;28;20781;-77
2022/06/22 07:41:18;;;;;;;9.33;5.67;;;20.10;99.90;;;;;;5066750;28;20416;-76
2022/06/22 07:43:48;;;;;;;12.90;5.47;;;20.30;99.90;;;;;;5064901;28;20441;-77
2022/06/22 07:46:35;;;;;;;9.60;5.70;;;20.30;99.90;;;;;;5063617;28;20458;-78
2022/06/22 07:49:10;;;;;;;9.13;5.80;;;20.50;99.90;;;;;;5064378;28;20439;-78
2022/06/22 07:51:44;;;;;;;13.17;5.27;;;20.60;99.90;;;;;;5065768;28;20403;-74
2022/06/22 07:54:33;;;;;;;7.63;5.10;;;20.60;99.90;;;;;;5064726;28;20443;-77
2022/06/22 07:57:05;;;;;;;10.07;4.70;;;20.50;99.90;;;;;;5065783;28;20419;-73
2022/06/22 07:59:51;;;;;;;21.43;5.57;;;20.60;99.90;;;;;;5065052;28;20431;-77
2022/06/22 08:02:22;;;;;;;9.50;5.33;;;20.60;99.90;;;;;;5065412;28;20447;-75
2022/06/22 08:04:56;;;;;;;7.90;5.13;;;20.60;99.90;;;;;;5064796;28;20447;-79
2022/06/22 08:07:41;;;;;;;10.40;5.37;;;20.60;99.90;;;;;;5067240;28;20462;-79
2022/06/22 08:10:33;;;;;;;8.77;4.63;;;20.60;99.90;;;;;;5062314;28;20462;-78
2022/06/22 08:13:02;;;;;;;14.33;4.93;;;20.50;99.90;;;;;;5059841;28;20485;-76
2022/06/22 08:15:33;;;;;;;9.07;4.87;;;20.40;99.90;;;;;;5064309;28;20982;-76
2022/06/22 08:18:00;;;;;;;9.60;5.67;;;20.30;99.90;;;;;;5067836;28;20791;-78
2022/06/22 08:20:32;;;;;;;12.20;6.80;;;20.20;99.90;;;;;;5059732;28;20443;-74
2022/06/22 08:23:01;;;;;;;13.20;6.73;;;20.20;99.90;;;;;;5065612;28;20419;-77
2022/06/22 08:25:26;;;;;;;7.63;5.20;;;20.30;99.90;;;;;;5065186;28;20550;-76
2022/06/22 08:27:52;;;;;;;9.07;6.20;;;20.40;99.90;;;;;;5067064;28;20581;-73
2022/06/22 08:30:19;;;;;;;7.30;4.20;;;20.40;99.90;;;;;;5065497;28;20189;-73
2022/06/22 08:32:53;;;;;;;11.80;5.57;;;20.40;99.90;;;;;;5065052;28;20197;-78
2022/06/22 08:35:31;;;;;;;9.50;5.33;;;20.50;99.90;;;;;;5064277;28;20439;-77
2022/06/22 08:38:01;;;;;;;8.10;5.03;;;20.50;99.90;;;;;;5056892;28;20439;-76
2022/06/22 08:40:33;;;;;;;9.30;6.20;;;20.60;99.90;;;;;;5064489;28;20442;-78
2022/06/22 08:43:11;;;;;;;14.03;7.13;;;20.60;99.90;;;;;;5064235;28;20954;-76
2022/06/22 08:46:00;;;;;;;13.67;6.70;;;20.60;99.90;;;;;;5063600;28;20459;-75
2022/06/22 08:48:45;;;;;;;16.87;6.77;;;20.50;99.90;;;;;;5062983;28;20983;-77
2022/06/22 08:51:19;;;;;;;10.73;6.17;;;20.40;99.90;;;;;;5066335;28;20463;-75
2022/06/22 08:53:44;;;;;;;10.17;6.80;;;20.30;99.90;;;;;;5061084;28;20645;-77
2022/06/22 08:56:19;;;;;;;16.73;7.90;;;20.20;99.90;;;;;;5061152;28;20537;-76
2022/06/22 08:59:00;;;;;;;17.70;8.90;;;20.20;99.90;;;;;;5064808;28;20188;-76
2022/06/22 09:01:35;;;;;;;22.40;8.73;;;20.20;99.90;;;;;;5066527;28;20410;-76
2022/06/22 09:04:28;;;;;;;14.10;7.63;;;20.10;99.90;;;;;;5061915;28;21328;-76
2022/06/22 09:06:59;;;;;;;12.37;7.47;;;20.10;99.90;;;;;;5059936;28;20523;-76
2022/06/22 09:09:31;;;;;;;10.17;6.43;;;20.10;99.90;;;;;;5064285;28;20729;-77
2022/06/22 09:12:13;;;;;;;14.93;7.77;;;20.00;99.90;;;;;;5066616;28;20419;-77
2022/06/22 09:14:57;;;;;;;9.67;6.50;;;20.10;99.90;;;;;;5066212;28;20900;-77
2022/06/22 09:17:41;;;;;;;11.70;6.30;;;20.10;99.90;;;;;;5063683;28;20497;-76
2022/06/22 15:54:51;;;;;;;10.20;2.83;;;22.00;99.90;;;;;;5110803;27;20450;-79
2022/06/22 15:58:00;;;;;;;8.27;2.73;;;21.90;99.90;;;;;;5120547;27;20452;-79
2022/06/22 16:00:47;;;;;;;9.43;2.53;;;22.00;99.90;;;;;;5109802;27;20512;-79
2022/06/22 16:03:25;;;;;;;16.13;2.70;;;22.00;99.90;;;;;;5099203;27;21077;-79
2022/06/22 16:05:57;;;;;;;8.60;2.97;;;22.10;99.90;;;;;;5120703;27;20487;-79
2022/06/22 16:08:43;;;;;;;9.47;3.00;;;22.10;99.90;;;;;;5105510;27;20437;-78
2022/06/22 16:14:59;;;;;;;7.43;2.17;;;22.20;99.90;;;;;;5022390;28;21281;-79
2022/06/22 16:17:36;;;;;;;22.97;2.70;;;22.30;99.90;;;;;;5028931;28;20449;-79
2022/06/22 16:20:29;;;;;;;6.23;2.70;;;22.50;99.90;;;;;;5100672;27;20415;-79
2022/06/22 16:23:03;;;;;;;11.80;2.80;;;22.50;99.90;;;;;;5104784;27;20533;-79
2022/06/22 16:26:07;;;;;;;18.13;2.10;;;22.40;99.90;;;;;;5099807;27;20887;-79
2022/06/22 16:28:51;;;;;;;9.20;2.37;;;22.30;99.90;;;;;;5114691;27;20424;-79
2022/06/22 16:31:31;;;;;;;10.03;3.13;;;22.30;99.90;;;;;;5110193;27;20514;-79
2022/06/22 16:34:21;;;;;;;2.80;1.60;;;22.20;99.90;;;;;;5108258;27;20965;-79
2022/06/22 16:37:03;;;;;;;7.00;2.97;;;22.20;99.90;;;;;;5089396;28;20879;-80
2022/06/22 16:39:29;;;;;;;24.13;2.97;;;22.20;99.90;;;;;;5090703;27;20428;-79
2022/06/22 16:42:03;;;;;;;11.80;3.20;;;22.10;99.90;;;;;;5125636;27;20530;-78
2022/06/22 16:44:29;;;;;;;3.50;1.80;;;22.00;99.90;;;;;;5123380;27;20733;-78
2022/06/22 16:47:09;;;;;;;12.13;2.83;;;21.80;99.90;;;;;;5098221;28;20474;-79
2022/06/22 16:49:48;;;;;;;7.77;3.93;;;21.70;99.90;;;;;;5111391;27;20178;-80
2022/06/22 16:52:33;;;;;;;11.50;3.77;;;21.60;99.90;;;;;;5100777;27;20505;-79
2022/06/22 16:55:07;;;;;;;15.20;3.60;;;21.60;99.90;;;;;;5103110;27;20443;-79
2022/06/22 16:57:50;;;;;;;15.73;3.47;;;21.50;99.90;;;;;;5102331;27;20422;-79
2022/06/22 17:00:19;;;;;;;9.07;2.80;;;21.50;99.90;;;;;;5090793;27;20809;-79
2022/06/22 17:03:03;;;;;;;6.20;2.97;;;21.40;99.90;;;;;;5105765;27;20495;-79
2022/06/22 17:05:47;;;;;;;13.80;3.07;;;21.40;99.90;;;;;;5107128;27;20417;-79
2022/06/22 17:08:45;;;;;;;19.20;3.77;;;21.40;99.90;;;;;;5109522;27;20853;-79
2022/06/22 17:11:16;;;;;;;14.93;2.90;;;21.50;99.90;;;;;;5095351;28;20807;-79
2022/06/22 17:13:51;;;;;;;4.80;2.57;;;21.50;99.90;;;;;;5087717;28;20434;-79
2022/06/22 17:16:45;;;;;;;5.97;2.47;;;21.40;99.90;;;;;;5100190;27;20475;-79
2022/06/22 17:19:10;;;;;;;10.23;2.50;;;21.40;99.90;;;;;;5058941;27;20430;-79
2022/06/22 17:21:47;;;;;;;6.87;2.90;;;21.40;99.90;;;;;;5112411;28;20828;-77
2022/06/22 17:24:40;;;;;;;5.97;2.40;;;21.30;99.90;;;;;;5084273;28;20202;-79
2022/06/22 17:27:44;;;;;;;7.13;3.10;;;21.30;99.90;;;;;;5111708;28;20412;-80
2022/06/22 17:30:20;;;;;;;15.07;3.87;;;21.30;99.90;;;;;;5105478;28;20487;-77
2022/06/22 17:33:03;;;;;;;15.10;2.90;;;21.30;99.90;;;;;;5091329;28;20549;-79
2022/06/22 17:35:43;;;;;;;13.60;3.80;;;21.30;99.90;;;;;;5092317;28;20410;-76
2022/06/22 17:38:33;;;;;;;7.43;3.47;;;21.30;99.90;;;;;;5087355;28;20414;-78
2022/06/22 17:41:27;;;;;;;7.70;2.57;;;21.30;99.90;;;;;;5068123;28;20454;-76
2022/06/22 17:44:02;;;;;;;9.67;2.40;;;21.30;99.90;;;;;;5078757;28;20440;-79
2022/06/22 17:46:31;;;;;;;14.53;3.97;;;21.30;99.90;;;;;;5121115;27;20423;-78
2022/06/22 17:49:06;;;;;;;12.00;3.13;;;21.20;99.90;;;;;;5112756;27;20402;-79
2022/06/22 17:51:56;;;;;;;12.20;3.17;;;21.20;99.90;;;;;;5110356;27;20431;-78
2022/06/22 17:54:46;;;;;;;19.03;3.23;;;21.20;99.90;;;;;;5098848;27;20448;-79
2022/06/22 17:57:25;;;;;;;12.50;2.50;;;21.10;99.90;;;;;;5114710;27;20433;-80
2022/06/22 18:00:18;;;;;;;14.53;3.10;;;21.00;99.90;;;;;;5102568;27;20413;-79
2022/06/22 18:03:10;;;;;;;8.80;2.10;;;21.00;99.90;;;;;;5109103;27;21252;-79
2022/06/22 18:05:49;;;;;;;6.63;3.07;;;20.90;99.90;;;;;;5118873;27;20540;-79
2022/06/22 18:08:21;;;;;;;10.23;3.00;;;20.80;99.90;;;;;;5118327;27;20972;-79
2022/06/22 18:10:58;;;;;;;9.40;3.33;;;20.80;99.90;;;;;;5119539;27;20433;-77
2022/06/22 18:13:34;;;;;;;6.37;3.10;;;20.70;99.90;;;;;;5115274;27;20448;-79
2022/06/22 18:16:01;;;;;;;21.17;3.17;;;20.70;99.90;;;;;;5113497;27;20410;-79
2022/06/22 18:18:34;;;;;;;7.30;2.77;;;20.60;99.90;;;;;;5114042;27;20944;-79
2022/06/22 18:21:00;;;;;;;8.43;3.37;;;20.60;99.90;;;;;;5101967;27;20494;-79
2022/06/22 18:23:46;;;;;;;27.87;3.50;;;20.60;99.90;;;;;;5110182;27;20508;-79
2022/06/22 18:26:19;;;;;;;11.33;2.67;;;20.60;99.90;;;;;;5097786;28;20268;-79
2022/06/22 18:28:49;;;;;;;5.70;3.40;;;20.60;99.90;;;;;;5116519;27;20421;-78
2022/06/22 18:31:49;;;;;;;13.90;3.03;;;20.50;99.90;;;;;;5112003;27;20420;-78
2022/06/22 18:34:21;;;;;;;9.70;3.20;;;20.50;99.90;;;;;;5090840;28;20945;-78
2022/06/22 18:37:02;;;;;;;17.53;4.00;;;20.50;99.90;;;;;;5098427;28;20492;-79
2022/06/22 18:43:32;;;;;;;4.90;2.70;;;20.40;99.90;;;;;;5044586;28;20489;-79
2022/06/22 18:46:14;;;;;;;13.40;2.77;;;20.40;99.90;;;;;;5053280;28;20517;-78
2022/06/22 18:48:51;;;;;;;9.07;3.10;;;20.30;99.90;;;;;;5099381;27;20429;-79
2022/06/22 18:51:35;;;;;;;10.63;2.90;;;20.30;99.90;;;;;;5100763;27;20414;-79
2022/06/22 18:54:30;;;;;;;13.20;3.33;;;20.20;99.90;;;;;;5110689;27;20432;-79
2022/06/22 18:56:59;;;;;;;5.50;2.03;;;20.20;99.90;;;;;;5119950;27;20412;-80
2022/06/22 18:59:34;;;;;;;12.67;3.80;;;20.10;99.90;;;;;;5109870;27;20776;-80
2022/06/22 19:02:24;;;;;;;4.77;2.67;;;20.00;99.90;;;;;;5113836;27;20468;-80
2022/06/22 19:05:04;;;;;;;9.80;3.17;;;20.00;99.90;;;;;;5100371;27;20419;-79
2022/06/22 19:07:31;;;;;;;10.70;2.67;;;20.00;99.90;;;;;;5094773;28;20851;-79
2022/06/22 19:10:02;;;;;;;9.03;3.20;;;19.90;99.90;;;;;;5113565;27;20432;-79
2022/06/22 19:12:45;;;;;;;8.20;3.00;;;19.80;99.90;;;;;;5116946;27;20926;-79
2022/06/22 19:15:19;;;;;;;8.97;3.20;;;19.70;99.90;;;;;;5119190;27;20992;-78
2022/06/22 19:18:31;;;;;;;5.40;2.80;;;19.70;99.90;;;;;;5110372;27;20420;-80
2022/06/22 19:21:27;;;;;;;8.80;3.90;;;19.70;99.90;;;;;;5052515;28;20522;-78
2022/06/22 19:24:05;;;;;;;15.30;3.87;;;19.70;99.90;;;;;;5109085;27;20868;-79
2022/06/22 19:26:40;;;;;;;18.17;3.50;;;19.60;99.90;;;;;;5100025;27;20498;-76
2022/06/22 19:29:16;;;;;;;9.10;2.50;;;19.50;99.90;;;;;;5093437;27;20471;-79
2022/06/22 19:31:51;;;;;;;7.23;2.97;;;19.40;99.90;;;;;;5105077;27;20441;-78
2022/06/22 19:34:36;;;;;;;13.40;3.60;;;19.40;99.90;;;;;;5092028;28;20474;-79
2022/06/22 19:37:11;;;;;;;10.67;3.40;;;19.30;99.90;;;;;;5089787;28;20417;-77
2022/06/22 19:40:21;;;;;;;9.73;2.93;;;19.30;99.90;;;;;;5096690;28;20572;-79
2022/06/22 19:43:01;;;;;;;14.83;2.90;;;19.30;99.90;;;;;;5114334;27;20975;-78
2022/06/22 19:45:45;;;;;;;5.53;2.00;;;19.20;99.90;;;;;;5104522;27;20801;-79
2022/06/22 19:48:29;;;;;;;17.83;2.87;;;19.20;99.90;;;;;;5095595;27;20419;-78
2022/06/22 19:51:18;;;;;;;6.30;2.67;;;19.10;99.90;;;;;;5107357;27;20432;-79
2022/06/22 19:54:11;;;;;;;9.80;3.30;;;19.00;99.90;;;;;;5110017;27;20992;-79
2022/06/22 19:56:39;;;;;;;29.77;3.70;;;19.00;99.90;;;;;;5110390;27;20416;-79
2022/06/22 19:59:07;;;;;;;8.23;3.87;;;18.90;99.90;;;;;;5106510;27;20445;-80
2022/06/22 20:01:48;;;;;;;10.53;3.03;;;18.90;99.90;;;;;;5096617;27;20556;-80
2022/06/22 20:04:27;;;;;;;4.80;2.37;;;18.80;99.90;;;;;;5096509;27;20430;-80
2022/06/22 20:07:21;;;;;;;11.00;3.30;;;18.80;99.90;;;;;;5089832;27;20418;-79
2022/06/22 20:10:09;;;;;;;26.80;3.90;;;18.70;99.90;;;;;;5095909;27;20511;-79
2022/06/22 20:12:43;;;;;;;8.27;3.17;;;18.70;99.90;;;;;;5090286;28;20449;-79
2022/06/22 20:15:21;;;;;;;5.63;3.67;;;18.70;99.90;;;;;;5093265;27;20418;-80
2022/06/22 20:17:56;;;;;;;9.90;3.83;;;18.60;99.90;;;;;;5090041;27;20414;-79
2022/06/22 20:20:35;;;;;;;7.40;3.23;;;18.60;99.90;;;;;;5103148;28;20970;-79
2022/06/22 20:23:22;;;;;;;12.77;3.20;;;18.50;99.90;;;;;;5103035;27;20498;-79
2022/06/22 20:25:59;;;;;;;19.27;3.97;;;18.50;99.90;;;;;;5106297;28;20430;-80